Wittmann, Arizona
Current Conditions -  °F | °C
As of 9:58 AM on Tuesday 27 Jan 2015 (Local Time) from KLUF Reporting Station
Clear Clear  
Wind Chill: 61°   Ceiling: Unl
Heat Index: 61°   Visibility: 10mi
Dew Point: 54°   Wind: 3mph
Humidity: 79%   Direction: NA
Pressure: 30.23"   Gusts: NA
Location:  33.78°N, 112.53°W
Report Text: KLUF 271658Z AUTO VRB03KT 10SM CLR 16/12 A3023 RMK AO2 SLP234 T01590123 $
Loading
Personal Weather Stations






























Interactive Weather Map New forecast layout! Learn more

10-Day Weather Forecast

Advertisements
Track Severe Weather on mobile